A- A+ FrançaisEnglishEspañol中国

Services sur Internet Soldes sur Internet Des idées de cadeaux Météo Météo aéro

La météo à : Autours de vous Biscarrosse-Parentis Tarbes-Lourdes-PyrénéesSt-Pierre-D'oleronGrenoble-Le-Versoud

La météo aéronautique pour les pilotes, la préparation du vol avec les METAR (METeorological Aerodrome Report, message d'observation des conditions météorologiques pour l'aviation) et Les TAF (Terminal Aerodrome Forecast : message de prévision à court terme des conditions météorologiques pour l'aviation). Et les autres ressources comme les VAC (Visual Approch Chart) et les NOTAM (Notice To Airman) pour préprer les vols.

Aéroport Rankin Inlet (Canada) / OACI CYRT / IATA YRT

L'altitude de l'aéroport Rankin Inlet est de 29 mètres. Il est situé à proximité de Rankin Inlet (Canada). La météo générale à 5 jours est disponible pour Rankin Inlet situé à 1.8 km.

METAR de l'aéroport Rankin Inlet - CYRT

CYRT 211200Z 35027KT 1/4SM -SN BLSN VV008 M22/M25 A2981 RMK BLSN8 ROOF VIS 3/4SM SLP099

Décodage du METAR de l'aéroport Rankin Inlet (CA)

METAR émis par CYRT le jeudi 21 novembre 2019 à 12:00 heure TU, il y a 7 minutes.

La visibilité est de 0.4 km = 0.25 sm.

La température est de -22°C et le point rosée est de -25°C. Ce qui correspond à 77% d'humidité relative.

Le QNH est de 1009 hPa = 29.8 inHg

Vent de 27 kt = 50 km/h, orienté à 350°.

Nuages : VV800 ft = 240 mètres.

-SN BLSN

RMK BLSN8 ROOF VIS 3/4SM SLP099

TAF de l'aéroport Rankin Inlet - CYRT

CYRT 211139Z 2112/2124 35030G40KT 1/8SM -SN +BLSN VV008 TEMPO 2112/2115 1SM BLSN OVC012 BECMG 2113/2115 34025KT FM211500 34025KT 3/4SM -SN BLSN OVC009 TEMPO 2115/2121 2SM BLSN OVC012 BECMG 2119/2121 34018KT FM212100 34018KT 1SM -SN BLSN OVC010 TEMPO 2121/2124 3SM BLSN OVC030 BECMG 2122/2124 35015KT RMK NXT FCST BY 211800Z

CYRT 211139Z 2112/2124 35030G40KT 1/8SM faible SN forte BLSN VV008 temporairement 2112/2115 1SM BLSN couverture nuageuse soudée à 012 devenant 2113/2115 34025KT FM211500 34025KT 3/4SM faible SN BLSN couverture nuageuse soudée à 009 temporairement 2115/2121 2SM BLSN couverture nuageuse soudée à 012 devenant 2119/2121 34018KT FM212100 34018KT 1SM faible SN BLSN couverture nuageuse soudée à 010 temporairement 2121/2124 3SM BLSN couverture nuageuse soudée à 030 devenant 2122/2124 35015KT remarques NXT trombe ST BY 211800Z

Aéroport à proximité de Rankin Inlet

Météo générale à 5 jours à Rankin Inlet (1.8 km)Aéroport Whale Cove (68 km)Aéroport Chesterfield Inlet (92 km)Aéroport Arviat (217 km)Aéroport Baker Lake (257 km)Aéroport Coral Harbour (460 km)Aéroport Churchill (465 km)

Vue aérienne de l'aéroport Rankin Inlet

NOTAM de l'aéroport Rankin Inlet

Les NOTAM sont fournis sans aucune garantie de leur actualité. Le pilote est le seul responsable de la vérification de sa validité avant de l'utiliser opérationnellement pour préparer un vol ou l'utiliser lors de sa navigation.

Pas de NOTAM

Sources des données